Terminal Aerodrome Forecast
Issued by NWS

Home | Current Version | Previous Version | Text Only | Print | Product List | Glossary On
Versions: 1 2 3 4 5 6 7 8 9 10 11 12 13 14 15 16 17 18
000
FTUS44 KCRP 281100 RRA
TAFLRD
TAF
KLRD 281141Z 2812/2912 34010KT P6SM SCT015 OVC025
      TEMPO 2812/2814 -RA BKN015
     FM281400 34012G18KT P6SM SCT025 BKN035
     FM281900 34010KT P6SM SCT035
     FM290100 VRB03KT P6SM SKC=

USA.gov is the U.S. government's official web portal to all federal, state and local government web resources and services.